Time;durP1;ratioP1;P1;durP2;ratioP2;P2;SDS_P1;SDS_P2;PMS_P1;PMS_P2;Temp;Humidity;BMP_temperature;BMP_pressure;BME280_temperature;BME280_humidity;BME280_pressure;Samples;Min_cycle;Max_cycle;Signal;HPM_P1;HPM_P2
2023/09/06 00:00:31;;;;;;;5.50;2.00;;;;;;;22.91;50.38;101404.69;5108311;28;20521;-82
2023/09/06 00:03:23;;;;;;;2.95;2.45;;;;;;;22.91;50.44;101404.69;5119893;28;20051;-81
2023/09/06 00:06:21;;;;;;;2.78;1.30;;;;;;;22.95;50.14;101400.00;5118862;28;20046;-81
2023/09/06 00:09:16;;;;;;;7.55;2.22;;;;;;;22.92;50.31;101398.78;5119754;28;20497;-82
2023/09/06 00:12:10;;;;;;;8.43;2.60;;;;;;;22.91;50.21;101399.94;5121370;28;20070;-82
2023/09/06 00:15:04;;;;;;;4.95;2.30;;;;;;;22.91;50.13;101402.72;5125928;28;20047;-81
2023/09/06 00:17:57;;;;;;;3.67;2.03;;;;;;;22.85;50.48;101395.16;5119822;28;20043;-81
2023/09/06 00:20:51;;;;;;;5.28;2.15;;;;;;;22.85;50.11;101395.97;5118918;28;20513;-82
2023/09/06 00:23:44;;;;;;;7.55;2.38;;;;;;;22.73;50.73;101396.22;5119357;28;20070;-81
2023/09/06 00:26:38;;;;;;;4.95;2.20;;;;;;;22.71;50.73;101389.44;5119693;28;20050;-82
2023/09/06 00:29:33;;;;;;;3.70;1.73;;;;;;;22.74;50.69;101397.81;5118227;28;20046;-81
2023/09/06 00:32:27;;;;;;;4.30;1.88;;;;;;;22.81;50.56;101383.22;5119221;28;20046;-82
2023/09/06 00:35:20;;;;;;;3.33;2.15;;;;;;;22.78;50.51;101390.34;5110269;28;20043;-82
2023/09/06 00:38:14;;;;;;;4.13;2.15;;;;;;;22.68;50.98;101391.00;5121755;28;20372;-81
2023/09/06 00:41:06;;;;;;;5.82;2.53;;;;;;;22.71;50.92;101387.47;5118941;28;20047;-81
2023/09/06 00:44:01;;;;;;;9.38;2.28;;;;;;;22.60;50.96;101389.34;5109371;28;20038;-80
2023/09/06 00:46:56;;;;;;;3.42;1.95;;;;;;;22.66;51.00;101398.88;5119402;28;20042;-81
2023/09/06 00:49:50;;;;;;;3.65;1.90;;;;;;;22.69;51.21;101397.34;5104020;28;20043;-81
2023/09/06 00:52:47;;;;;;;2.78;1.90;;;;;;;22.66;51.10;101393.34;5121881;28;20042;-82
2023/09/06 00:55:40;;;;;;;8.95;2.33;;;;;;;22.68;51.25;101392.97;5117627;28;20051;-82
2023/09/06 00:58:32;;;;;;;5.88;2.00;;;;;;;22.62;51.09;101386.97;5108807;28;20042;-81
2023/09/06 01:01:28;;;;;;;2.17;1.83;;;;;;;22.52;51.21;101394.00;5118594;28;20402;-82
2023/09/06 01:04:22;;;;;;;3.78;2.28;;;;;;;22.52;51.58;101385.69;5118036;28;20521;-82
2023/09/06 01:07:18;;;;;;;2.97;1.80;;;;;;;22.46;51.44;101383.63;5122252;28;20046;-82
2023/09/06 01:10:12;;;;;;;6.53;2.47;;;;;;;22.45;51.75;101388.38;5119326;28;20042;-81
2023/09/06 01:13:07;;;;;;;4.45;2.13;;;;;;;22.49;51.53;101388.44;5118646;28;20046;-82
2023/09/06 01:15:59;;;;;;;5.45;1.80;;;;;;;22.26;51.76;101379.44;5118256;28;20058;-82
2023/09/06 01:18:51;;;;;;;4.30;2.20;;;;;;;22.53;51.30;101378.97;5130295;27;20038;-80
2023/09/06 01:21:47;;;;;;;4.78;1.80;;;;;;;22.37;51.58;101383.94;5123439;27;20063;-82
2023/09/06 01:24:42;;;;;;;8.70;2.20;;;;;;;22.51;51.49;101384.09;5119565;28;20047;-81
2023/09/06 01:27:36;;;;;;;5.60;2.53;;;;;;;22.52;51.17;101377.38;5123617;28;20047;-82
2023/09/06 01:30:33;;;;;;;4.50;2.28;;;;;;;22.40;51.57;101374.84;5122280;28;20051;-82
2023/09/06 01:33:27;;;;;;;3.40;2.30;;;;;;;22.32;52.21;101375.16;5120124;28;20050;-82
2023/09/06 01:36:19;;;;;;;3.85;2.70;;;;;;;22.45;51.50;101379.28;5111533;28;20051;-82
2023/09/06 01:39:14;;;;;;;5.63;2.95;;;;;;;22.42;51.50;101372.50;5108714;28;20047;-82
2023/09/06 01:42:09;;;;;;;7.30;3.33;;;;;;;22.43;51.55;101356.69;5108267;28;20050;-81
2023/09/06 01:45:01;;;;;;;6.75;3.00;;;;;;;22.36;51.54;101362.13;5120390;28;20039;-81
2023/09/06 01:47:56;;;;;;;6.13;2.78;;;;;;;22.34;51.73;101368.06;5118237;28;20426;-81
2023/09/06 01:50:50;;;;;;;10.63;3.08;;;;;;;22.38;51.50;101362.56;5106528;28;20402;-82
2023/09/06 01:53:42;;;;;;;8.52;2.70;;;;;;;22.41;51.56;101359.81;5119223;28;20051;-82
2023/09/06 01:56:37;;;;;;;4.88;2.47;;;;;;;22.38;51.78;101359.78;5122802;28;20058;-81
2023/09/06 01:59:31;;;;;;;4.68;2.75;;;;;;;22.31;51.80;101357.72;5105659;28;20051;-82
2023/09/06 02:02:26;;;;;;;7.63;2.70;;;;;;;22.30;51.91;101352.59;5118659;28;20054;-82
2023/09/06 02:05:18;;;;;;;4.35;2.40;;;;;;;22.28;51.89;101357.69;5122444;28;20142;-82
2023/09/06 02:08:13;;;;;;;4.13;2.35;;;;;;;22.26;51.80;101355.31;5120516;28;20047;-82
2023/09/06 02:11:07;;;;;;;3.63;2.10;;;;;;;22.25;51.81;101359.25;5103747;28;20402;-82
2023/09/06 02:14:02;;;;;;;8.15;2.10;;;;;;;22.21;51.95;101350.09;5121080;28;20118;-82
2023/09/06 02:16:56;;;;;;;3.85;2.20;;;;;;;22.16;52.01;101348.47;5120141;28;20055;-82
2023/09/06 02:19:51;;;;;;;2.63;2.10;;;;;;;22.17;52.18;101349.25;5124660;28;20043;-82
2023/09/06 02:22:46;;;;;;;4.63;2.42;;;;;;;22.18;52.12;101348.91;5123963;28;20051;-82
2023/09/06 02:25:41;;;;;;;3.90;2.30;;;;;;;22.24;51.98;101343.81;5107858;28;20046;-82
2023/09/06 02:28:33;;;;;;;4.22;2.42;;;;;;;22.22;51.74;101348.13;5129055;28;20047;-81
2023/09/06 02:31:22;;;;;;;7.57;2.50;;;;;;;22.20;51.77;101347.72;5124375;28;20046;-82
2023/09/06 02:34:17;;;;;;;3.15;1.88;;;;;;;22.15;51.80;101346.88;5126025;28;20062;-82
2023/09/06 02:37:12;;;;;;;8.15;2.00;;;;;;;22.15;52.22;101352.41;5120396;28;20050;-81
2023/09/06 02:40:13;;;;;;;3.42;1.92;;;;;;;22.16;52.11;101355.97;5107938;28;20406;-81
2023/09/06 02:43:06;;;;;;;3.97;2.40;;;;;;;22.17;51.81;101347.28;5122830;28;20043;-82
2023/09/06 02:46:03;;;;;;;3.17;2.08;;;;;;;22.06;52.13;101348.34;5109557;28;20042;-81
2023/09/06 02:48:58;;;;;;;6.78;2.15;;;;;;;21.87;52.77;101346.50;5128370;28;20050;-82
2023/09/06 02:51:53;;;;;;;4.53;1.77;;;;;;;22.04;52.37;101340.44;5125773;28;20054;-82
2023/09/06 02:54:42;;;;;;;3.10;1.73;;;;;;;22.48;51.55;101340.50;5106399;28;20042;-84
2023/09/06 02:57:37;;;;;;;7.30;1.70;;;;;;;22.75;50.53;101346.75;5123808;28;20051;-83
2023/09/06 03:00:32;;;;;;;3.45;2.13;;;;;;;22.78;50.30;101334.88;5123097;28;20043;-85
2023/09/06 03:03:30;;;;;;;4.43;2.63;;;;;;;22.77;50.52;101327.72;5128959;28;20054;-85
2023/09/06 03:06:32;;;;;;;4.38;2.25;;;;;;;22.80;50.15;101332.53;5124301;28;20042;-86
2023/09/06 03:09:28;;;;;;;3.58;2.15;;;;;;;22.81;50.12;101334.09;5126077;28;20046;-86
2023/09/06 03:12:20;;;;;;;6.30;2.60;;;;;;;22.81;50.08;101333.28;5119670;28;20051;-83
2023/09/06 03:15:15;;;;;;;4.68;2.42;;;;;;;22.80;50.11;101332.53;5126858;28;20047;-86
2023/09/06 03:18:07;;;;;;;4.82;2.75;;;;;;;22.76;50.02;101337.22;5123735;28;20039;-85
2023/09/06 03:21:04;;;;;;;4.43;3.00;;;;;;;22.74;50.00;101328.50;5103863;28;20050;-86
2023/09/06 03:23:59;;;;;;;4.45;2.47;;;;;;;22.73;50.12;101326.91;5099261;28;20070;-86
2023/09/06 03:26:53;;;;;;;4.95;2.63;;;;;;;22.66;50.24;101343.44;5104622;28;20063;-86
2023/09/06 03:29:48;;;;;;;4.13;2.45;;;;;;;22.72;50.27;101333.63;5124720;28;20047;-87
2023/09/06 03:32:43;;;;;;;4.90;2.22;;;;;;;22.79;50.12;101333.69;5111501;28;20061;-87
2023/09/06 03:35:36;;;;;;;7.57;2.67;;;;;;;22.79;50.27;101330.13;5125847;28;20047;-87
2023/09/06 03:38:31;;;;;;;5.75;2.90;;;;;;;22.76;50.08;101323.34;5117714;28;20421;-86
2023/09/06 03:41:23;;;;;;;9.95;3.08;;;;;;;22.75;50.00;101329.31;5119302;28;20118;-86
2023/09/06 03:44:18;;;;;;;4.35;2.65;;;;;;;22.72;50.45;101330.84;5125425;28;20050;-86
2023/09/06 03:47:15;;;;;;;6.13;2.10;;;;;;;22.67;50.28;101322.84;5111339;28;20525;-86
2023/09/06 03:50:11;;;;;;;3.08;2.05;;;;;;;22.61;50.35;101318.81;5123252;28;20089;-87
2023/09/06 03:53:02;;;;;;;2.63;1.73;;;;;;;22.61;50.17;101310.50;5124322;28;20042;-86
2023/09/06 03:55:57;;;;;;;8.00;2.55;;;;;;;22.56;50.02;101321.94;5118840;28;20407;-86
2023/09/06 03:58:53;;;;;;;3.45;2.08;;;;;;;22.55;50.18;101314.84;5125843;28;20047;-86
2023/09/06 04:01:48;;;;;;;5.00;2.30;;;;;;;22.55;50.06;101321.16;5118742;28;20054;-86
2023/09/06 04:04:40;;;;;;;;;;;;;;;22.56;50.23;101319.97;5121227;28;20035;-85
2023/09/06 04:07:32;;;;;;;3.95;2.10;;;;;;;22.52;50.39;101315.56;5105651;28;19912;-85
2023/09/06 04:10:35;;;;;;;3.47;1.90;;;;;;;22.52;50.43;101319.16;5119070;28;20043;-86
2023/09/06 04:13:30;;;;;;;4.07;2.60;;;;;;;22.47;50.50;101310.38;5111142;28;20541;-85
2023/09/06 04:16:25;;;;;;;3.33;2.08;;;;;;;22.52;50.50;101305.28;5118049;28;20047;-86
2023/09/06 04:19:18;;;;;;;;;;;;;;;22.61;50.25;101316.06;5118081;28;20051;-86
2023/09/06 04:22:13;;;;;;;4.30;1.92;;;;;;;22.60;50.18;101311.72;5121553;28;19919;-86
2023/09/06 04:25:11;;;;;;;4.85;1.73;;;;;;;22.58;50.20;101314.84;5124316;28;20394;-86
2023/09/06 04:28:07;;;;;;;4.45;1.90;;;;;;;22.56;50.25;101316.41;5119257;28;20043;-86
2023/09/06 04:30:56;;;;;;;;;;;;;;;22.47;50.36;101315.94;5120732;28;20055;-86
2023/09/06 04:33:51;;;;;;;6.28;2.63;;;;;;;22.42;50.55;101307.97;5106678;28;20289;-86
2023/09/06 04:36:49;;;;;;;3.60;2.22;;;;;;;22.48;50.57;101314.75;5108775;28;20043;-86
2023/09/06 04:39:42;;;;;;;11.23;2.38;;;;;;;22.48;50.51;101303.66;5109488;28;20426;-86
2023/09/06 04:42:37;;;;;;;4.93;2.20;;;;;;;22.47;50.51;101313.97;5123841;28;20152;-86
2023/09/06 04:45:32;;;;;;;5.55;2.03;;;;;;;22.54;50.10;101305.72;5124446;28;20042;-86
2023/09/06 04:48:26;;;;;;;4.25;2.67;;;;;;;22.47;50.13;101315.94;5107138;28;20225;-85
2023/09/06 04:51:15;;;;;;;4.43;2.10;;;;;;;21.52;52.61;101310.06;5125037;28;20414;-84
2023/09/06 04:54:09;;;;;;;9.50;2.30;;;;;;;21.47;52.40;101302.88;5105272;28;20055;-85
2023/09/06 04:57:04;;;;;;;3.75;2.10;;;;;;;21.32;52.56;101307.41;5101027;28;20517;-85
2023/09/06 04:59:59;;;;;;;10.68;2.25;;;;;;;21.21;52.68;101303.69;5120009;28;20043;-85
2023/09/06 05:02:56;;;;;;;8.07;2.20;;;;;;;21.13;53.17;101310.25;5116303;28;20042;-85
2023/09/06 05:05:51;;;;;;;3.72;2.20;;;;;;;21.04;53.66;101309.72;5111696;28;20043;-85
2023/09/06 05:08:46;;;;;;;5.00;2.13;;;;;;;21.06;53.37;101301.84;5109983;28;20046;-86
2023/09/06 05:11:43;;;;;;;6.82;2.35;;;;;;;21.06;53.51;101312.91;5122998;28;20047;-84
2023/09/06 05:14:35;;;;;;;5.70;2.30;;;;;;;20.97;53.81;101298.56;5112674;28;20058;-84
2023/09/06 05:17:30;;;;;;;5.38;2.65;;;;;;;21.00;53.67;101299.75;5122026;28;20046;-84
2023/09/06 05:20:32;;;;;;;14.23;3.33;;;;;;;21.08;53.82;101305.03;5122846;28;20047;-84
2023/09/06 05:23:28;;;;;;;6.18;3.33;;;;;;;21.16;53.50;101308.75;5111181;28;20050;-83
2023/09/06 05:26:20;;;;;;;9.02;2.92;;;;;;;21.21;53.32;101314.75;5106908;28;20035;-83
2023/09/06 05:29:10;;;;;;;7.88;2.42;;;;;;;21.08;54.06;101310.56;5102703;28;20039;-84
2023/09/06 05:32:05;;;;;;;5.50;2.13;;;;;;;21.22;53.56;101308.06;5121097;28;20046;-84
2023/09/06 05:34:57;;;;;;;12.73;2.80;;;;;;;21.29;53.51;101304.56;5102806;28;20058;-84
2023/09/06 05:37:51;;;;;;;4.53;1.95;;;;;;;21.37;53.68;101313.78;5113237;28;20046;-84
2023/09/06 05:40:47;;;;;;;7.82;2.50;;;;;;;21.47;53.45;101316.72;5110119;28;20051;-84
2023/09/06 05:43:49;;;;;;;9.48;3.17;;;;;;;21.73;52.47;101304.78;5128204;28;20043;-84
2023/09/06 05:46:43;;;;;;;4.22;2.42;;;;;;;21.81;52.48;101297.34;5125037;28;20034;-84
2023/09/06 05:49:36;;;;;;;;;;;;;;;21.76;52.64;101304.84;5122833;28;20050;-84
2023/09/06 05:52:28;;;;;;;7.28;3.25;;;;;;;21.78;52.73;101307.22;5127163;28;19911;-84
2023/09/06 05:55:21;;;;;;;10.90;3.33;;;;;;;21.84;52.43;101308.47;5124770;28;20522;-84
2023/09/06 05:58:13;;;;;;;7.90;2.80;;;;;;;21.86;52.89;101310.88;5128518;28;20043;-84
2023/09/06 06:01:08;;;;;;;17.52;3.72;;;;;;;22.05;52.29;101317.06;5126460;28;20070;-83
2023/09/06 06:04:03;;;;;;;13.05;2.25;;;;;;;22.01;52.35;101316.22;5127988;28;20051;-83
2023/09/06 06:06:58;;;;;;;11.68;3.17;;;;;;;22.17;52.34;101314.06;5127753;28;20058;-84
2023/09/06 06:09:52;;;;;;;29.15;4.57;;;;;;;22.27;52.42;101320.88;5126769;28;20054;-84
2023/09/06 06:12:47;;;;;;;14.02;2.78;;;;;;;22.41;52.47;101318.25;5131642;28;20046;-83
2023/09/06 06:15:42;;;;;;;10.70;3.03;;;;;;;22.65;51.83;101329.97;5127647;28;20514;-84
2023/09/06 06:18:36;;;;;;;18.17;4.07;;;;;;;22.77;51.63;101329.69;5126666;28;20058;-84
2023/09/06 06:21:31;;;;;;;10.50;3.28;;;;;;;22.91;51.34;101338.13;5127674;28;20074;-83
2023/09/06 06:24:23;;;;;;;15.43;3.22;;;;;;;23.01;51.36;101335.44;5125929;28;20042;-83
2023/09/06 06:27:18;;;;;;;9.98;3.08;;;;;;;23.09;51.40;101339.09;5125908;28;20048;-83
2023/09/06 06:30:13;;;;;;;14.07;3.50;;;;;;;23.20;50.96;101350.25;5115677;28;20410;-83
2023/09/06 06:33:06;;;;;;;23.23;3.33;;;;;;;23.15;51.35;101345.06;5126277;28;20042;-83
2023/09/06 06:36:01;;;;;;;19.75;3.80;;;;;;;23.16;51.05;101344.66;5130570;28;20043;-84
2023/09/06 06:38:56;;;;;;;20.00;2.55;;;;;;;23.32;50.99;101355.47;5127845;28;20047;-84
2023/09/06 06:41:51;;;;;;;11.38;3.25;;;;;;;23.71;49.93;101347.44;5127078;28;20042;-84
2023/09/06 06:44:47;;;;;;;31.30;3.90;;;;;;;23.87;48.86;101357.00;5115928;28;20043;-84
2023/09/06 06:47:41;;;;;;;25.45;4.72;;;;;;;24.00;48.78;101354.69;5127145;28;20051;-84
2023/09/06 06:50:36;;;;;;;18.95;3.72;;;;;;;23.93;48.28;101348.31;5114625;28;20544;-84
2023/09/06 06:53:30;;;;;;;17.85;4.05;;;;;;;24.12;48.31;101354.38;5128672;28;20043;-84
2023/09/06 06:56:25;;;;;;;9.85;3.78;;;;;;;24.25;48.13;101358.41;5126105;28;20418;-84
2023/09/06 06:59:17;;;;;;;14.57;2.88;;;;;;;24.47;47.43;101364.81;5129083;28;20059;-83
2023/09/06 07:02:10;;;;;;;10.77;2.10;;;;;;;24.91;46.32;101358.94;5122753;28;20046;-83
2023/09/06 07:05:02;;;;;;;15.20;3.28;;;;;;;25.05;46.15;101358.13;5126419;28;20047;-84
2023/09/06 07:07:54;;;;;;;14.52;2.60;;;;;;;25.02;46.78;101356.13;5103106;28;20047;-84
2023/09/06 07:10:48;;;;;;;14.45;3.28;;;;;;;25.31;46.36;101354.13;5114108;28;20043;-84
2023/09/06 07:13:40;;;;;;;17.42;3.45;;;;;;;25.40;46.22;101351.72;5111914;28;20089;-84
2023/09/06 07:16:30;;;;;;;7.80;3.25;;;;;;;25.98;44.74;101370.69;5121842;28;20054;-84
2023/09/06 07:19:22;;;;;;;10.18;2.85;;;;;;;26.01;44.80;101372.66;5107536;27;20051;-84
2023/09/06 07:22:14;;;;;;;11.45;2.72;;;;;;;26.25;44.24;101369.00;5128081;28;20046;-84
2023/09/06 07:25:10;;;;;;;10.93;2.83;;;;;;;26.61;42.66;101358.44;5126616;28;20056;-84
2023/09/06 07:28:02;;;;;;;14.73;3.45;;;;;;;27.19;42.14;101363.16;5130467;28;20043;-84
2023/09/06 07:30:58;;;;;;;10.15;3.10;;;;;;;27.59;41.04;101366.38;5110987;28;20026;-83
2023/09/06 07:33:50;;;;;;;;;;;;;;;28.07;39.69;101374.59;5104857;28;20046;-85
2023/09/06 07:36:43;;;;;;;12.63;3.20;;;;;;;28.34;39.06;101374.66;5107466;28;20573;-84
2023/09/06 07:39:35;;;;;;;5.05;3.13;;;;;;;28.81;37.97;101381.97;5112986;28;20043;-84
2023/09/06 07:42:30;;;;;;;13.00;2.60;;;;;;;28.17;37.70;101376.47;5124909;28;20497;-87
2023/09/06 07:45:22;;;;;;;;;;;;;;;30.71;33.77;101383.50;5118616;28;20043;-85
2023/09/06 07:48:17;;;;;;;10.07;3.25;;;;;;;33.33;29.59;101381.53;5116153;28;19912;-86
2023/09/06 07:51:12;;;;;;;9.15;2.22;;;;;;;35.54;25.86;101395.84;5102293;28;20043;-85
2023/09/06 07:54:04;;;;;;;;;;;;;;;36.80;23.83;101398.88;5115339;28;20042;-86
2023/09/06 07:56:49;;;;;;;6.03;2.17;;;;;;;33.15;28.11;101386.97;5119790;28;20305;-88
2023/09/06 07:59:41;;;;;;;9.80;2.45;;;;;;;28.48;35.97;101377.25;5110945;28;20410;-88
2023/09/06 08:02:33;;;;;;;8.55;2.17;;;;;;;27.56;36.53;101375.59;5109644;28;20109;-90
2023/09/06 08:05:24;;;;;;;6.80;1.83;;;;;;;27.22;38.28;101372.72;5119899;28;20039;-86
2023/09/06 08:08:16;;;;;;;7.90;2.08;;;;;;;26.51;39.85;101381.59;5123764;28;20043;-87
2023/09/06 08:11:06;;;;;;;7.97;2.00;;;;;;;26.71;39.57;101370.72;5115515;28;20051;-87
2023/09/06 08:14:01;;;;;;;10.00;2.28;;;;;;;28.48;35.52;101377.25;5109733;28;20050;-85
2023/09/06 08:16:55;;;;;;;5.03;1.45;;;;;;;32.80;28.93;101391.78;5113210;28;20043;-85
2023/09/06 08:19:50;;;;;;;5.68;2.72;;;;;;;33.55;26.92;101388.00;5106996;28;20059;-86
2023/09/06 08:22:40;;;;;;;3.20;1.85;;;;;;;36.52;24.06;101385.28;5108314;28;20043;-86
2023/09/06 08:25:36;;;;;;;24.48;2.30;;;;;;;39.72;20.34;101387.84;5106727;28;20395;-86
2023/09/06 08:28:26;;;;;;;7.32;2.88;;;;;;;40.46;19.60;101396.59;5106216;28;20047;-87
2023/09/06 08:31:20;;;;;;;5.88;1.80;;;;;;;35.64;22.97;101393.00;5099360;28;20058;-89
2023/09/06 08:34:16;;;;;;;5.70;2.40;;;;;;;30.76;31.18;101385.78;5100977;28;20569;-88
2023/09/06 08:37:11;;;;;;;4.72;2.65;;;;;;;29.35;31.67;101381.91;5102766;28;20039;-88
2023/09/06 08:40:00;;;;;;;3.67;1.70;;;;;;;28.59;34.87;101386.28;5099454;28;20043;-87
2023/09/06 08:42:55;;;;;;;6.35;2.10;;;;;;;27.97;34.40;101381.91;5106550;28;20055;-85
2023/09/06 08:45:53;;;;;;;7.90;2.78;;;;;;;27.62;35.80;101376.72;5106745;28;20044;-87
2023/09/06 08:48:48;;;;;;;5.97;2.10;;;;;;;27.69;36.47;101373.84;5117337;28;20533;-86
2023/09/06 08:51:43;;;;;;;9.88;1.95;;;;;;;27.50;36.06;101374.44;5115731;28;20051;-86
2023/09/06 08:54:38;;;;;;;22.52;2.83;;;;;;;27.17;36.12;101373.94;5103895;28;20047;-86
2023/09/06 08:57:30;;;;;;;;;;;;;;;27.32;36.47;101373.81;5107189;28;20521;-86
2023/09/06 09:00:20;;;;;;;19.10;2.97;;;;;;;26.93;38.46;101368.56;5121871;28;19911;-87
2023/09/06 09:03:14;;;;;;;4.15;2.00;;;;;;;26.64;38.71;101376.31;5123718;28;20043;-85
2023/09/06 09:06:07;;;;;;;;;;;;;;;26.07;40.43;101368.25;5121853;28;20410;-86
2023/09/06 09:09:17;;;;;;;6.18;2.33;;;;;;;25.79;42.82;101373.94;5116181;28;19911;-86
2023/09/06 09:12:13;;;;;;;16.45;2.83;;;;;;;25.64;42.68;101369.63;5116635;28;20058;-85
2023/09/06 09:15:06;;;;;;;14.00;2.53;;;;;;;25.89;42.57;101376.69;5112639;28;20050;-83
2023/09/06 09:17:59;;;;;;;9.25;2.67;;;;;;;25.51;43.79;101374.78;5107886;28;20043;-84
2023/09/06 09:20:54;;;;;;;9.77;2.60;;;;;;;25.33;43.57;101374.03;5085584;28;20090;-85
2023/09/06 09:23:55;;;;;;;8.05;1.98;;;;;;;25.59;42.68;101381.97;5099238;28;20048;-84
2023/09/06 09:26:47;;;;;;;5.32;1.95;;;;;;;25.44;42.25;101369.22;5094367;28;20035;-84
2023/09/06 09:29:37;;;;;;;4.97;2.78;;;;;;;25.76;41.34;101372.75;5094506;28;20050;-84
2023/09/06 09:32:30;;;;;;;7.95;2.13;;;;;;;25.34;43.13;101368.06;5095867;28;20434;-85
2023/09/06 09:35:22;;;;;;;5.05;1.83;;;;;;;25.94;41.24;101367.91;5094631;28;20055;-85
2023/09/06 09:38:17;;;;;;;7.55;2.83;;;;;;;25.91;41.26;101365.13;5095875;28;20043;-85
2023/09/06 09:41:11;;;;;;;8.48;1.73;;;;;;;25.96;41.46;101367.50;5094826;28;20051;-85
2023/09/06 09:44:19;;;;;;;6.72;1.60;;;;;;;25.75;41.77;101360.00;5084183;28;20059;-85
2023/09/06 09:47:15;;;;;;;6.32;2.13;;;;;;;25.66;41.77;101353.28;5094735;28;20051;-85
2023/09/06 09:50:09;;;;;;;6.38;1.77;;;;;;;25.85;41.06;101366.75;5094749;28;20043;-85
2023/09/06 09:53:04;;;;;;;12.30;2.22;;;;;;;25.74;41.49;101360.44;5096227;28;20486;-85
2023/09/06 09:56:06;;;;;;;12.32;2.28;;;;;;;26.02;40.42;101362.28;5099598;28;20350;-85
2023/09/06 09:59:03;;;;;;;6.25;1.95;;;;;;;26.48;39.13;101359.28;5101600;28;20047;-84
2023/09/06 10:01:56;;;;;;;2.22;1.60;;;;;;;26.70;38.87;101357.97;5081572;28;20047;-84
2023/09/06 10:04:49;;;;;;;7.00;1.98;;;;;;;26.53;39.68;101356.88;5083931;28;20047;-83
2023/09/06 10:07:45;;;;;;;2.70;1.63;;;;;;;25.95;40.88;101350.00;5095513;28;20048;-83
2023/09/06 10:10:41;;;;;;;4.82;1.50;;;;;;;25.79;41.57;101340.50;5095125;28;20407;-84
2023/09/06 10:13:35;;;;;;;4.03;2.28;;;;;;;25.76;41.34;101352.44;5094393;28;20047;-84
2023/09/06 10:16:29;;;;;;;2.88;1.80;;;;;;;25.61;41.53;101340.56;5099548;28;20051;-85
2023/09/06 10:19:23;;;;;;;6.15;2.05;;;;;;;25.21;42.95;101341.81;5109934;28;20050;-85
2023/09/06 10:22:18;;;;;;;4.50;1.77;;;;;;;26.36;38.70;101341.06;5115665;28;20536;-85
2023/09/06 10:25:13;;;;;;;4.00;1.90;;;;;;;25.89;41.00;101345.25;5118053;28;20043;-84
2023/09/06 10:28:07;;;;;;;4.05;2.08;;;;;;;26.29;38.75;101350.25;5112131;28;20047;-84
2023/09/06 10:31:07;;;;;;;;;;;;;;;25.97;40.66;101336.44;5111350;28;20038;-84
2023/09/06 10:34:02;;;;;;;7.40;1.92;;;;;;;26.88;37.30;101336.31;5111835;28;19912;-84
2023/09/06 10:37:00;;;;;;;3.40;1.75;;;;;;;27.59;34.57;101336.41;5094335;28;20111;-84
2023/09/06 10:39:57;;;;;;;3.85;1.98;;;;;;;27.66;35.81;101341.13;5104092;28;20409;-84
2023/09/06 10:42:47;;;;;;;5.90;1.70;;;;;;;27.63;35.70;101331.56;5107032;28;20038;-85
2023/09/06 10:45:41;;;;;;;3.70;1.80;;;;;;;27.68;36.53;101338.72;5104995;28;20359;-85
2023/09/06 10:48:33;;;;;;;4.70;1.55;;;;;;;27.31;37.25;101330.31;5118686;28;20039;-86
2023/09/06 10:51:29;;;;;;;4.22;1.50;;;;;;;26.54;38.87;101321.41;5120493;28;20046;-85
2023/09/06 10:54:24;;;;;;;3.53;1.50;;;;;;;26.51;38.90;101316.66;5106979;28;20039;-84
2023/09/06 10:57:19;;;;;;;3.67;1.55;;;;;;;26.15;40.11;101313.25;5103112;28;20058;-85
2023/09/06 11:00:18;;;;;;;11.68;1.90;;;;;;;26.34;39.45;101313.56;5098915;28;20039;-86
2023/09/06 11:03:16;;;;;;;3.95;1.55;;;;;;;26.82;38.66;101323.94;5125072;28;20051;-84
2023/09/06 11:06:10;;;;;;;4.97;1.77;;;;;;;27.16;37.58;101310.13;5119791;28;20043;-85
2023/09/06 11:09:07;;;;;;;4.18;1.50;;;;;;;27.44;36.82;101311.81;5113520;28;20047;-85
2023/09/06 11:12:03;;;;;;;3.92;2.20;;;;;;;27.51;36.03;101311.78;5115235;28;20042;-85
2023/09/06 11:14:57;;;;;;;3.28;1.75;;;;;;;28.37;34.29;101309.47;5102759;28;20051;-83
2023/09/06 11:17:52;;;;;;;4.00;1.95;;;;;;;28.63;33.77;101308.66;5123695;27;20039;-84
2023/09/06 11:20:48;;;;;;;;;;;;;;;28.90;33.52;101315.00;5117087;28;20070;-84
2023/09/06 11:23:52;;;;;;;;;;;;;;;27.55;36.68;101309.72;5115355;28;19916;-84
2023/09/06 11:26:44;;;;;;;3.53;1.38;;;;;;;27.10;37.68;101303.41;5101154;28;19911;-84
2023/09/06 11:29:33;;;;;;;2.67;1.50;;;;;;;27.68;37.06;101302.41;5107539;28;20038;-84
2023/09/06 11:32:29;;;;;;;6.70;2.10;;;;;;;27.94;34.72;101307.22;5118280;28;20057;-83
2023/09/06 11:35:27;;;;;;;2.75;1.38;;;;;;;28.01;34.39;101298.75;5118076;28;20038;-84
2023/09/06 11:38:25;;;;;;;3.80;1.95;;;;;;;27.94;35.23;101290.44;5122145;28;20062;-84
2023/09/06 11:41:19;;;;;;;2.67;1.77;;;;;;;28.13;34.34;101294.63;5099267;28;20047;-84
2023/09/06 11:44:12;;;;;;;;;;;;;;;27.95;35.15;101294.03;5092624;28;20042;-84
2023/09/06 11:47:04;;;;;;;1.95;1.17;;;;;;;28.12;34.90;101292.25;5120889;28;19915;-85
2023/09/06 11:49:58;;;;;;;2.80;1.40;;;;;;;28.13;33.70;101285.44;5104914;28;20042;-84
2023/09/06 11:52:49;;;;;;;;;;;;;;;28.43;33.32;101279.78;5118596;28;20042;-84
2023/09/06 11:55:45;;;;;;;5.78;1.30;;;;;;;27.91;35.07;101277.31;5119196;28;19912;-84
2023/09/06 11:58:48;;;;;;;2.38;1.38;;;;;;;27.33;36.53;101277.63;5110128;28;20046;-84
2023/09/06 12:01:46;;;;;;;1.55;1.23;;;;;;;27.11;36.38;101266.69;5119311;28;20062;-84
2023/09/06 12:04:40;;;;;;;2.50;1.23;;;;;;;27.08;36.97;101275.88;5116734;28;20047;-84
2023/09/06 12:07:33;;;;;;;2.00;1.23;;;;;;;27.61;35.41;101266.16;5103028;28;20043;-85
2023/09/06 12:10:28;;;;;;;2.10;1.02;;;;;;;28.06;32.30;101256.34;5114795;28;20050;-85
2023/09/06 12:13:31;;;;;;;4.30;1.00;;;;;;;28.88;31.90;101257.84;5105399;28;20043;-83
2023/09/06 12:16:25;;;;;;;2.97;1.15;;;;;;;28.98;31.26;101253.28;5112411;28;20048;-84
2023/09/06 12:19:20;;;;;;;2.33;1.30;;;;;;;29.09;31.32;101257.47;5092334;28;20054;-85
2023/09/06 12:22:17;;;;;;;1.55;0.95;;;;;;;29.50;28.70;101251.47;5097687;28;20067;-85
2023/09/06 12:25:09;;;;;;;4.75;0.90;;;;;;;29.68;28.03;101242.69;5093811;28;20047;-84
2023/09/06 12:28:03;;;;;;;1.55;0.93;;;;;;;29.59;29.42;101243.28;5105616;28;20043;-86
2023/09/06 12:30:58;;;;;;;1.77;0.75;;;;;;;29.68;29.19;101242.69;5113194;28;20043;-84
2023/09/06 12:33:51;;;;;;;2.38;1.17;;;;;;;29.29;30.31;101235.84;5109885;28;20044;-85
2023/09/06 12:36:45;;;;;;;1.27;0.93;;;;;;;29.43;29.88;101220.78;5117566;28;20047;-83
2023/09/06 12:39:40;;;;;;;1.67;0.93;;;;;;;29.77;28.85;101226.84;5110066;27;20043;-84
2023/09/06 12:42:35;;;;;;;1.45;0.90;;;;;;;29.92;28.01;101234.97;5104034;28;20138;-84
2023/09/06 12:45:33;;;;;;;3.88;1.10;;;;;;;29.47;30.64;101221.50;5106854;27;20500;-84
2023/09/06 12:48:25;;;;;;;2.65;0.98;;;;;;;28.63;33.45;101213.47;5109978;27;20046;-85
2023/09/06 12:51:17;;;;;;;6.15;1.10;;;;;;;28.10;33.88;101217.13;5107436;28;20421;-83
2023/09/06 12:54:12;;;;;;;7.70;1.10;;;;;;;28.46;32.04;101206.19;5112808;28;20051;-84
2023/09/06 12:57:04;;;;;;;6.95;1.45;;;;;;;28.87;29.49;101203.84;5109185;28;20047;-83
2023/09/06 12:59:59;;;;;;;1.50;0.93;;;;;;;29.37;28.07;101202.09;5099912;28;20513;-85
2023/09/06 13:02:51;;;;;;;10.20;2.03;;;;;;;29.39;29.10;101194.06;5099650;28;20051;-84
2023/09/06 13:05:48;;;;;;;6.65;1.70;;;;;;;29.18;30.78;101196.06;5102224;28;20043;-84
2023/09/06 13:08:40;;;;;;;8.68;1.30;;;;;;;28.93;31.73;101190.16;5117262;28;20109;-84
2023/09/06 13:11:35;;;;;;;2.30;1.35;;;;;;;29.13;30.07;101184.56;5117943;28;20370;-84
2023/09/06 13:14:29;;;;;;;4.05;1.10;;;;;;;29.47;28.95;101189.88;5115247;28;20528;-85
2023/09/06 13:17:22;;;;;;;2.83;1.00;;;;;;;28.64;31.93;101184.28;5114544;28;20051;-85
2023/09/06 13:20:16;;;;;;;4.82;1.20;;;;;;;29.28;28.50;101174.63;5123833;28;20055;-85
2023/09/06 13:23:08;;;;;;;;;;;;;;;29.54;27.32;101178.50;5117203;28;20042;-84
2023/09/06 13:26:00;;;;;;;1.13;0.88;;;;;;;29.73;27.54;101178.47;5121479;28;19912;-85
2023/09/06 13:28:55;;;;;;;4.35;1.38;;;;;;;29.50;27.17;101173.00;5119689;27;20039;-86
2023/09/06 13:31:44;;;;;;;;;;;;;;;29.52;29.44;101166.94;5105765;28;20042;-84